sensor_id;sensor_type;location;lat;lon;timestamp;P1;durP1;ratioP1;P2;durP2;ratioP2
76053;SDS011;64752;48.870;9.082;2023-04-07T00:00:46;14.27;;;10.73;;
76053;SDS011;64752;48.870;9.082;2023-04-07T00:03:12;18.35;;;12.02;;
76053;SDS011;64752;48.870;9.082;2023-04-07T00:05:37;16.02;;;10.98;;
76053;SDS011;64752;48.870;9.082;2023-04-07T00:08:02;15.00;;;11.27;;
76053;SDS011;64752;48.870;9.082;2023-04-07T00:10:27;14.15;;;11.13;;
76053;SDS011;64752;48.870;9.082;2023-04-07T00:12:52;16.17;;;11.60;;
76053;SDS011;64752;48.870;9.082;2023-04-07T00:15:18;15.98;;;11.57;;
76053;SDS011;64752;48.870;9.082;2023-04-07T00:17:43;14.93;;;11.18;;
76053;SDS011;64752;48.870;9.082;2023-04-07T00:20:08;14.65;;;11.10;;
76053;SDS011;64752;48.870;9.082;2023-04-07T00:22:33;14.90;;;11.27;;
76053;SDS011;64752;48.870;9.082;2023-04-07T00:24:59;15.82;;;10.82;;
76053;SDS011;64752;48.870;9.082;2023-04-07T00:27:24;15.40;;;11.00;;
76053;SDS011;64752;48.870;9.082;2023-04-07T00:29:53;15.80;;;11.00;;
76053;SDS011;64752;48.870;9.082;2023-04-07T00:32:21;15.75;;;11.48;;
76053;SDS011;64752;48.870;9.082;2023-04-07T00:34:46;15.02;;;10.70;;
76053;SDS011;64752;48.870;9.082;2023-04-07T00:37:12;11.77;;;9.73;;
76053;SDS011;64752;48.870;9.082;2023-04-07T00:39:37;15.65;;;10.57;;
76053;SDS011;64752;48.870;9.082;2023-04-07T00:42:03;14.10;;;10.02;;
76053;SDS011;64752;48.870;9.082;2023-04-07T00:44:29;16.52;;;10.77;;
76053;SDS011;64752;48.870;9.082;2023-04-07T00:46:54;15.90;;;10.02;;
76053;SDS011;64752;48.870;9.082;2023-04-07T00:49:20;15.95;;;10.60;;
76053;SDS011;64752;48.870;9.082;2023-04-07T00:51:45;19.00;;;10.85;;
76053;SDS011;64752;48.870;9.082;2023-04-07T00:54:10;14.38;;;9.68;;
76053;SDS011;64752;48.870;9.082;2023-04-07T00:56:36;15.63;;;11.05;;
76053;SDS011;64752;48.870;9.082;2023-04-07T00:59:02;16.88;;;11.45;;
76053;SDS011;64752;48.870;9.082;2023-04-07T01:01:44;16.50;;;10.85;;
76053;SDS011;64752;48.870;9.082;2023-04-07T01:04:17;14.95;;;10.38;;
76053;SDS011;64752;48.870;9.082;2023-04-07T01:06:46;17.10;;;11.98;;
76053;SDS011;64752;48.870;9.082;2023-04-07T01:09:16;15.98;;;11.10;;
76053;SDS011;64752;48.870;9.082;2023-04-07T01:11:54;17.42;;;11.45;;
76053;SDS011;64752;48.870;9.082;2023-04-07T01:14:23;16.80;;;12.35;;
76053;SDS011;64752;48.870;9.082;2023-04-07T01:16:49;17.13;;;13.00;;
76053;SDS011;64752;48.870;9.082;2023-04-07T01:21:56;15.70;;;11.93;;
76053;SDS011;64752;48.870;9.082;2023-04-07T01:24:44;16.85;;;12.38;;
76053;SDS011;64752;48.870;9.082;2023-04-07T01:27:31;17.95;;;12.43;;
76053;SDS011;64752;48.870;9.082;2023-04-07T01:29:58;19.35;;;12.85;;
76053;SDS011;64752;48.870;9.082;2023-04-07T01:34:51;18.60;;;13.45;;
76053;SDS011;64752;48.870;9.082;2023-04-07T01:37:16;19.55;;;12.63;;
76053;SDS011;64752;48.870;9.082;2023-04-07T01:39:41;17.48;;;12.35;;
76053;SDS011;64752;48.870;9.082;2023-04-07T01:42:07;18.27;;;13.10;;
76053;SDS011;64752;48.870;9.082;2023-04-07T01:44:33;17.45;;;12.48;;
76053;SDS011;64752;48.870;9.082;2023-04-07T01:46:58;18.60;;;13.93;;
76053;SDS011;64752;48.870;9.082;2023-04-07T01:49:24;17.02;;;12.60;;
76053;SDS011;64752;48.870;9.082;2023-04-07T01:51:51;19.75;;;13.32;;
76053;SDS011;64752;48.870;9.082;2023-04-07T01:54:16;18.15;;;12.60;;
76053;SDS011;64752;48.870;9.082;2023-04-07T01:56:42;17.10;;;13.18;;
76053;SDS011;64752;48.870;9.082;2023-04-07T01:59:09;18.42;;;13.63;;
76053;SDS011;64752;48.870;9.082;2023-04-07T02:01:34;18.25;;;12.88;;
76053;SDS011;64752;48.870;9.082;2023-04-07T02:06:27;16.15;;;12.45;;
76053;SDS011;64752;48.870;9.082;2023-04-07T02:08:56;18.30;;;14.07;;
76053;SDS011;64752;48.870;9.082;2023-04-07T02:11:23;20.05;;;12.52;;
76053;SDS011;64752;48.870;9.082;2023-04-07T02:13:48;19.27;;;13.98;;
76053;SDS011;64752;48.870;9.082;2023-04-07T02:16:16;18.73;;;13.55;;
76053;SDS011;64752;48.870;9.082;2023-04-07T02:18:42;18.95;;;12.63;;
76053;SDS011;64752;48.870;9.082;2023-04-07T02:21:07;17.05;;;12.02;;
76053;SDS011;64752;48.870;9.082;2023-04-07T02:23:36;17.30;;;12.48;;
76053;SDS011;64752;48.870;9.082;2023-04-07T02:26:01;16.73;;;12.57;;
76053;SDS011;64752;48.870;9.082;2023-04-07T02:28:26;17.58;;;13.07;;
76053;SDS011;64752;48.870;9.082;2023-04-07T02:30:52;17.73;;;13.35;;
76053;SDS011;64752;48.870;9.082;2023-04-07T02:33:17;17.75;;;13.27;;
76053;SDS011;64752;48.870;9.082;2023-04-07T02:35:42;18.15;;;12.27;;
76053;SDS011;64752;48.870;9.082;2023-04-07T02:38:07;18.17;;;12.13;;
76053;SDS011;64752;48.870;9.082;2023-04-07T02:40:32;16.40;;;12.25;;
76053;SDS011;64752;48.870;9.082;2023-04-07T02:42:58;14.25;;;11.45;;
76053;SDS011;64752;48.870;9.082;2023-04-07T02:45:23;18.00;;;12.75;;
76053;SDS011;64752;48.870;9.082;2023-04-07T02:47:48;16.05;;;12.07;;
76053;SDS011;64752;48.870;9.082;2023-04-07T02:50:13;17.48;;;12.07;;
76053;SDS011;64752;48.870;9.082;2023-04-07T02:52:38;15.93;;;11.73;;
76053;SDS011;64752;48.870;9.082;2023-04-07T02:55:04;16.60;;;12.05;;
76053;SDS011;64752;48.870;9.082;2023-04-07T02:57:29;15.95;;;11.90;;
76053;SDS011;64752;48.870;9.082;2023-04-07T02:59:55;16.80;;;12.23;;
76053;SDS011;64752;48.870;9.082;2023-04-07T03:02:22;17.77;;;12.05;;
76053;SDS011;64752;48.870;9.082;2023-04-07T03:04:47;18.75;;;11.75;;
76053;SDS011;64752;48.870;9.082;2023-04-07T03:07:12;18.77;;;12.55;;
76053;SDS011;64752;48.870;9.082;2023-04-07T03:09:37;17.50;;;11.97;;
76053;SDS011;64752;48.870;9.082;2023-04-07T03:12:02;18.83;;;12.18;;
76053;SDS011;64752;48.870;9.082;2023-04-07T03:14:28;18.33;;;12.98;;
76053;SDS011;64752;48.870;9.082;2023-04-07T03:16:53;17.05;;;12.07;;
76053;SDS011;64752;48.870;9.082;2023-04-07T03:19:18;16.17;;;11.65;;
76053;SDS011;64752;48.870;9.082;2023-04-07T03:21:43;17.73;;;12.32;;
76053;SDS011;64752;48.870;9.082;2023-04-07T03:24:09;15.15;;;11.70;;
76053;SDS011;64752;48.870;9.082;2023-04-07T03:26:34;16.58;;;10.90;;
76053;SDS011;64752;48.870;9.082;2023-04-07T03:28:59;19.15;;;12.75;;
76053;SDS011;64752;48.870;9.082;2023-04-07T03:31:25;16.90;;;12.25;;
76053;SDS011;64752;48.870;9.082;2023-04-07T03:33:50;16.17;;;12.35;;
76053;SDS011;64752;48.870;9.082;2023-04-07T03:36:16;15.40;;;11.43;;
76053;SDS011;64752;48.870;9.082;2023-04-07T03:38:42;20.30;;;11.88;;
76053;SDS011;64752;48.870;9.082;2023-04-07T03:41:07;15.82;;;11.07;;
76053;SDS011;64752;48.870;9.082;2023-04-07T03:43:33;15.85;;;11.90;;
76053;SDS011;64752;48.870;9.082;2023-04-07T03:45:58;16.60;;;11.55;;
76053;SDS011;64752;48.870;9.082;2023-04-07T03:48:23;14.63;;;10.85;;
76053;SDS011;64752;48.870;9.082;2023-04-07T03:50:49;16.52;;;11.13;;
76053;SDS011;64752;48.870;9.082;2023-04-07T03:53:14;15.02;;;11.07;;
76053;SDS011;64752;48.870;9.082;2023-04-07T03:55:40;17.20;;;12.00;;
76053;SDS011;64752;48.870;9.082;2023-04-07T03:58:06;15.52;;;12.07;;
76053;SDS011;64752;48.870;9.082;2023-04-07T04:00:31;18.45;;;11.88;;
76053;SDS011;64752;48.870;9.082;2023-04-07T04:02:57;17.42;;;12.07;;
76053;SDS011;64752;48.870;9.082;2023-04-07T04:05:22;17.50;;;11.70;;
76053;SDS011;64752;48.870;9.082;2023-04-07T04:07:48;17.98;;;11.30;;
76053;SDS011;64752;48.870;9.082;2023-04-07T04:12:40;17.17;;;11.77;;
76053;SDS011;64752;48.870;9.082;2023-04-07T04:15:06;16.50;;;11.05;;
76053;SDS011;64752;48.870;9.082;2023-04-07T04:17:31;17.95;;;11.68;;
76053;SDS011;64752;48.870;9.082;2023-04-07T04:19:56;14.68;;;11.25;;
76053;SDS011;64752;48.870;9.082;2023-04-07T04:22:21;17.38;;;12.20;;
76053;SDS011;64752;48.870;9.082;2023-04-07T04:24:47;15.80;;;11.02;;
76053;SDS011;64752;48.870;9.082;2023-04-07T04:27:12;19.67;;;11.80;;
76053;SDS011;64752;48.870;9.082;2023-04-07T04:29:37;14.93;;;10.95;;
76053;SDS011;64752;48.870;9.082;2023-04-07T04:32:02;16.92;;;11.40;;
76053;SDS011;64752;48.870;9.082;2023-04-07T04:34:28;16.23;;;11.75;;
76053;SDS011;64752;48.870;9.082;2023-04-07T04:36:53;17.00;;;12.02;;
76053;SDS011;64752;48.870;9.082;2023-04-07T04:39:18;15.77;;;12.30;;
76053;SDS011;64752;48.870;9.082;2023-04-07T04:41:44;18.90;;;13.05;;
76053;SDS011;64752;48.870;9.082;2023-04-07T04:44:09;18.73;;;12.85;;
76053;SDS011;64752;48.870;9.082;2023-04-07T04:46:34;16.70;;;12.00;;
76053;SDS011;64752;48.870;9.082;2023-04-07T04:49:00;14.48;;;11.63;;
76053;SDS011;64752;48.870;9.082;2023-04-07T04:51:25;16.10;;;11.55;;
76053;SDS011;64752;48.870;9.082;2023-04-07T04:53:51;15.18;;;11.68;;
76053;SDS011;64752;48.870;9.082;2023-04-07T04:56:16;15.73;;;11.05;;
76053;SDS011;64752;48.870;9.082;2023-04-07T04:58:41;16.10;;;11.53;;
76053;SDS011;64752;48.870;9.082;2023-04-07T05:01:10;16.67;;;10.65;;
76053;SDS011;64752;48.870;9.082;2023-04-07T05:03:35;16.33;;;10.38;;
76053;SDS011;64752;48.870;9.082;2023-04-07T05:06:00;14.60;;;11.23;;
76053;SDS011;64752;48.870;9.082;2023-04-07T05:08:26;15.65;;;10.60;;
76053;SDS011;64752;48.870;9.082;2023-04-07T05:10:51;14.20;;;10.68;;
76053;SDS011;64752;48.870;9.082;2023-04-07T05:13:16;15.93;;;11.40;;
76053;SDS011;64752;48.870;9.082;2023-04-07T05:15:41;15.00;;;11.43;;
76053;SDS011;64752;48.870;9.082;2023-04-07T05:18:07;16.08;;;11.43;;
76053;SDS011;64752;48.870;9.082;2023-04-07T05:20:32;15.85;;;12.05;;
76053;SDS011;64752;48.870;9.082;2023-04-07T05:22:57;18.23;;;11.23;;
76053;SDS011;64752;48.870;9.082;2023-04-07T05:25:22;15.37;;;11.57;;
76053;SDS011;64752;48.870;9.082;2023-04-07T05:27:49;17.00;;;10.65;;
76053;SDS011;64752;48.870;9.082;2023-04-07T05:30:14;13.70;;;10.32;;
76053;SDS011;64752;48.870;9.082;2023-04-07T05:32:40;16.92;;;11.50;;
76053;SDS011;64752;48.870;9.082;2023-04-07T05:35:05;16.00;;;11.57;;
76053;SDS011;64752;48.870;9.082;2023-04-07T05:37:30;14.98;;;10.80;;
76053;SDS011;64752;48.870;9.082;2023-04-07T05:39:55;15.52;;;11.60;;
76053;SDS011;64752;48.870;9.082;2023-04-07T05:42:21;14.32;;;10.95;;
76053;SDS011;64752;48.870;9.082;2023-04-07T05:44:46;15.88;;;12.27;;
76053;SDS011;64752;48.870;9.082;2023-04-07T05:47:11;17.33;;;12.82;;
76053;SDS011;64752;48.870;9.082;2023-04-07T05:49:36;17.30;;;12.55;;
76053;SDS011;64752;48.870;9.082;2023-04-07T05:52:02;15.65;;;11.93;;
76053;SDS011;64752;48.870;9.082;2023-04-07T05:54:27;17.05;;;12.25;;
76053;SDS011;64752;48.870;9.082;2023-04-07T05:56:52;18.30;;;12.10;;
76053;SDS011;64752;48.870;9.082;2023-04-07T05:59:18;17.50;;;11.93;;
76053;SDS011;64752;48.870;9.082;2023-04-07T06:01:43;18.48;;;11.65;;
76053;SDS011;64752;48.870;9.082;2023-04-07T06:04:08;13.75;;;10.95;;
76053;SDS011;64752;48.870;9.082;2023-04-07T06:06:33;14.00;;;11.13;;
76053;SDS011;64752;48.870;9.082;2023-04-07T06:08:59;13.48;;;10.32;;
76053;SDS011;64752;48.870;9.082;2023-04-07T06:11:25;13.57;;;10.35;;
76053;SDS011;64752;48.870;9.082;2023-04-07T06:13:51;13.55;;;9.80;;
76053;SDS011;64752;48.870;9.082;2023-04-07T06:16:16;15.15;;;10.88;;
76053;SDS011;64752;48.870;9.082;2023-04-07T06:18:44;13.00;;;9.82;;
76053;SDS011;64752;48.870;9.082;2023-04-07T06:21:09;14.88;;;9.60;;
76053;SDS011;64752;48.870;9.082;2023-04-07T06:23:34;15.45;;;10.35;;
76053;SDS011;64752;48.870;9.082;2023-04-07T06:25:59;12.75;;;9.27;;
76053;SDS011;64752;48.870;9.082;2023-04-07T06:28:25;14.13;;;9.80;;
76053;SDS011;64752;48.870;9.082;2023-04-07T06:30:50;14.77;;;10.07;;
76053;SDS011;64752;48.870;9.082;2023-04-07T06:33:16;13.73;;;9.68;;
76053;SDS011;64752;48.870;9.082;2023-04-07T06:35:41;14.02;;;9.98;;
76053;SDS011;64752;48.870;9.082;2023-04-07T06:38:06;15.10;;;10.13;;
76053;SDS011;64752;48.870;9.082;2023-04-07T06:40:32;13.90;;;9.93;;
76053;SDS011;64752;48.870;9.082;2023-04-07T06:42:57;15.52;;;10.73;;
76053;SDS011;64752;48.870;9.082;2023-04-07T06:45:22;17.80;;;10.95;;
76053;SDS011;64752;48.870;9.082;2023-04-07T06:47:48;13.38;;;10.35;;
76053;SDS011;64752;48.870;9.082;2023-04-07T06:50:13;13.82;;;10.85;;
76053;SDS011;64752;48.870;9.082;2023-04-07T06:52:38;15.17;;;11.43;;
76053;SDS011;64752;48.870;9.082;2023-04-07T06:55:03;18.83;;;11.60;;
76053;SDS011;64752;48.870;9.082;2023-04-07T06:57:28;15.20;;;11.80;;
76053;SDS011;64752;48.870;9.082;2023-04-07T06:59:54;15.75;;;11.60;;
76053;SDS011;64752;48.870;9.082;2023-04-07T07:02:19;13.45;;;11.20;;
76053;SDS011;64752;48.870;9.082;2023-04-07T07:04:44;15.70;;;11.07;;
76053;SDS011;64752;48.870;9.082;2023-04-07T07:07:10;14.13;;;11.05;;
76053;SDS011;64752;48.870;9.082;2023-04-07T07:09:35;15.68;;;11.10;;
76053;SDS011;64752;48.870;9.082;2023-04-07T07:12:00;12.50;;;8.77;;
76053;SDS011;64752;48.870;9.082;2023-04-07T07:14:30;11.73;;;8.30;;
76053;SDS011;64752;48.870;9.082;2023-04-07T07:16:55;11.33;;;8.40;;
76053;SDS011;64752;48.870;9.082;2023-04-07T07:19:20;13.03;;;8.73;;
76053;SDS011;64752;48.870;9.082;2023-04-07T07:21:45;9.40;;;7.40;;
76053;SDS011;64752;48.870;9.082;2023-04-07T07:24:11;9.80;;;7.33;;
76053;SDS011;64752;48.870;9.082;2023-04-07T07:26:36;9.53;;;6.77;;
76053;SDS011;64752;48.870;9.082;2023-04-07T07:29:01;9.73;;;7.00;;
76053;SDS011;64752;48.870;9.082;2023-04-07T07:31:26;10.23;;;6.37;;
76053;SDS011;64752;48.870;9.082;2023-04-07T07:33:51;8.00;;;6.23;;
76053;SDS011;64752;48.870;9.082;2023-04-07T07:36:17;8.60;;;5.90;;
76053;SDS011;64752;48.870;9.082;2023-04-07T07:38:42;6.70;;;5.30;;
76053;SDS011;64752;48.870;9.082;2023-04-07T07:41:07;6.80;;;4.80;;
76053;SDS011;64752;48.870;9.082;2023-04-07T07:43:32;6.83;;;5.20;;
76053;SDS011;64752;48.870;9.082;2023-04-07T07:45:58;6.13;;;4.63;;
76053;SDS011;64752;48.870;9.082;2023-04-07T07:48:23;6.70;;;4.80;;
76053;SDS011;64752;48.870;9.082;2023-04-07T07:50:49;7.93;;;4.60;;
76053;SDS011;64752;48.870;9.082;2023-04-07T07:53:16;8.43;;;5.10;;
76053;SDS011;64752;48.870;9.082;2023-04-07T07:55:41;6.77;;;4.53;;
76053;SDS011;64752;48.870;9.082;2023-04-07T07:58:06;8.50;;;4.40;;
76053;SDS011;64752;48.870;9.082;2023-04-07T08:00:31;6.53;;;4.80;;
76053;SDS011;64752;48.870;9.082;2023-04-07T08:02:56;5.00;;;4.03;;
76053;SDS011;64752;48.870;9.082;2023-04-07T08:05:22;7.33;;;4.27;;
76053;SDS011;64752;48.870;9.082;2023-04-07T08:07:47;6.10;;;4.47;;
76053;SDS011;64752;48.870;9.082;2023-04-07T08:10:13;6.60;;;4.10;;
76053;SDS011;64752;48.870;9.082;2023-04-07T08:12:38;5.63;;;2.77;;
76053;SDS011;64752;48.870;9.082;2023-04-07T08:15:03;5.47;;;3.30;;
76053;SDS011;64752;48.870;9.082;2023-04-07T08:17:29;4.13;;;3.07;;
76053;SDS011;64752;48.870;9.082;2023-04-07T08:19:54;5.13;;;3.13;;
76053;SDS011;64752;48.870;9.082;2023-04-07T08:22:20;6.30;;;3.23;;
76053;SDS011;64752;48.870;9.082;2023-04-07T08:24:45;8.27;;;3.33;;
76053;SDS011;64752;48.870;9.082;2023-04-07T08:27:11;5.90;;;3.13;;
76053;SDS011;64752;48.870;9.082;2023-04-07T08:29:36;4.77;;;3.30;;
76053;SDS011;64752;48.870;9.082;2023-04-07T08:32:01;7.63;;;3.37;;
76053;SDS011;64752;48.870;9.082;2023-04-07T08:34:27;5.27;;;3.60;;
76053;SDS011;64752;48.870;9.082;2023-04-07T08:36:52;4.83;;;3.37;;
76053;SDS011;64752;48.870;9.082;2023-04-07T08:39:17;7.87;;;3.50;;
76053;SDS011;64752;48.870;9.082;2023-04-07T08:41:43;4.15;;;3.13;;
76053;SDS011;64752;48.870;9.082;2023-04-07T08:44:09;6.63;;;3.60;;
76053;SDS011;64752;48.870;9.082;2023-04-07T08:46:34;6.30;;;3.40;;
76053;SDS011;64752;48.870;9.082;2023-04-07T08:49:01;5.00;;;3.38;;
76053;SDS011;64752;48.870;9.082;2023-04-07T08:53:53;6.88;;;3.80;;
76053;SDS011;64752;48.870;9.082;2023-04-07T08:56:19;7.40;;;3.47;;
76053;SDS011;64752;48.870;9.082;2023-04-07T08:58:46;5.75;;;3.25;;
76053;SDS011;64752;48.870;9.082;2023-04-07T09:01:12;5.68;;;2.92;;
76053;SDS011;64752;48.870;9.082;2023-04-07T09:03:37;4.47;;;3.27;;
76053;SDS011;64752;48.870;9.082;2023-04-07T09:06:02;7.43;;;3.33;;
76053;SDS011;64752;48.870;9.082;2023-04-07T09:08:28;6.63;;;4.13;;
76053;SDS011;64752;48.870;9.082;2023-04-07T09:10:53;6.70;;;3.60;;
76053;SDS011;64752;48.870;9.082;2023-04-07T09:13:19;6.50;;;3.57;;
76053;SDS011;64752;48.870;9.082;2023-04-07T09:15:44;5.70;;;3.47;;
76053;SDS011;64752;48.870;9.082;2023-04-07T09:18:10;4.70;;;3.07;;
76053;SDS011;64752;48.870;9.082;2023-04-07T09:25:53;5.28;;;3.80;;
76053;SDS011;64752;48.870;9.082;2023-04-07T09:28:18;5.27;;;3.67;;
76053;SDS011;64752;48.870;9.082;2023-04-07T09:30:51;6.87;;;3.93;;
76053;SDS011;64752;48.870;9.082;2023-04-07T09:33:17;6.32;;;3.30;;
76053;SDS011;64752;48.870;9.082;2023-04-07T09:35:50;7.82;;;3.42;;
76053;SDS011;64752;48.870;9.082;2023-04-07T09:40:42;6.22;;;3.05;;
76053;SDS011;64752;48.870;9.082;2023-04-07T09:43:13;4.70;;;3.03;;
76053;SDS011;64752;48.870;9.082;2023-04-07T09:45:38;5.82;;;3.33;;
76053;SDS011;64752;48.870;9.082;2023-04-07T09:48:04;6.53;;;3.77;;
76053;SDS011;64752;48.870;9.082;2023-04-07T09:50:33;7.15;;;3.97;;
76053;SDS011;64752;48.870;9.082;2023-04-07T09:52:59;6.95;;;3.72;;
76053;SDS011;64752;48.870;9.082;2023-04-07T09:55:25;8.10;;;4.05;;
76053;SDS011;64752;48.870;9.082;2023-04-07T09:57:51;7.17;;;3.17;;
76053;SDS011;64752;48.870;9.082;2023-04-07T10:00:17;6.63;;;3.15;;
76053;SDS011;64752;48.870;9.082;2023-04-07T10:02:42;6.30;;;3.10;;
76053;SDS011;64752;48.870;9.082;2023-04-07T10:05:09;6.03;;;3.60;;
76053;SDS011;64752;48.870;9.082;2023-04-07T10:07:34;5.32;;;2.65;;
76053;SDS011;64752;48.870;9.082;2023-04-07T10:09:59;5.77;;;3.40;;
76053;SDS011;64752;48.870;9.082;2023-04-07T10:12:25;5.43;;;3.10;;
76053;SDS011;64752;48.870;9.082;2023-04-07T10:14:51;6.90;;;3.17;;
76053;SDS011;64752;48.870;9.082;2023-04-07T10:17:16;9.60;;;3.87;;
76053;SDS011;64752;48.870;9.082;2023-04-07T10:19:43;5.70;;;3.58;;
76053;SDS011;64752;48.870;9.082;2023-04-07T10:22:09;5.85;;;3.00;;
76053;SDS011;64752;48.870;9.082;2023-04-07T10:27:03;5.85;;;3.30;;
76053;SDS011;64752;48.870;9.082;2023-04-07T10:29:33;7.25;;;3.47;;
76053;SDS011;64752;48.870;9.082;2023-04-07T10:32:00;6.15;;;3.50;;
76053;SDS011;64752;48.870;9.082;2023-04-07T10:37:22;9.70;;;4.65;;
76053;SDS011;64752;48.870;9.082;2023-04-07T10:39:48;8.57;;;4.43;;
76053;SDS011;64752;48.870;9.082;2023-04-07T10:44:57;8.90;;;4.30;;
76053;SDS011;64752;48.870;9.082;2023-04-07T10:47:24;7.03;;;4.10;;
76053;SDS011;64752;48.870;9.082;2023-04-07T10:52:33;7.47;;;4.25;;
76053;SDS011;64752;48.870;9.082;2023-04-07T10:58:11;8.50;;;4.63;;
76053;SDS011;64752;48.870;9.082;2023-04-07T11:00:28;6.85;;;4.35;;
76053;SDS011;64752;48.870;9.082;2023-04-07T11:02:53;9.30;;;4.40;;
76053;SDS011;64752;48.870;9.082;2023-04-07T11:05:19;8.47;;;5.23;;
76053;SDS011;64752;48.870;9.082;2023-04-07T11:07:46;9.70;;;5.68;;
76053;SDS011;64752;48.870;9.082;2023-04-07T11:10:14;9.15;;;5.40;;
76053;SDS011;64752;48.870;9.082;2023-04-07T11:12:40;8.55;;;4.95;;
76053;SDS011;64752;48.870;9.082;2023-04-07T11:15:21;8.77;;;5.33;;
76053;SDS011;64752;48.870;9.082;2023-04-07T11:17:46;10.77;;;5.45;;
76053;SDS011;64752;48.870;9.082;2023-04-07T11:20:51;9.77;;;5.80;;
76053;SDS011;64752;48.870;9.082;2023-04-07T11:23:16;10.15;;;5.90;;
76053;SDS011;64752;48.870;9.082;2023-04-07T11:25:42;11.15;;;6.68;;
76053;SDS011;64752;48.870;9.082;2023-04-07T11:28:09;15.98;;;7.68;;
76053;SDS011;64752;48.870;9.082;2023-04-07T11:30:35;9.90;;;6.15;;
76053;SDS011;64752;48.870;9.082;2023-04-07T11:33:01;11.18;;;6.90;;
76053;SDS011;64752;48.870;9.082;2023-04-07T11:35:26;10.25;;;6.80;;
76053;SDS011;64752;48.870;9.082;2023-04-07T11:37:58;9.98;;;6.70;;
76053;SDS011;64752;48.870;9.082;2023-04-07T11:40:34;11.40;;;7.10;;
76053;SDS011;64752;48.870;9.082;2023-04-07T11:43:01;10.95;;;7.50;;
76053;SDS011;64752;48.870;9.082;2023-04-07T11:45:26;11.02;;;6.97;;
76053;SDS011;64752;48.870;9.082;2023-04-07T11:47:52;11.98;;;6.68;;
76053;SDS011;64752;48.870;9.082;2023-04-07T11:50:36;9.25;;;5.65;;
76053;SDS011;64752;48.870;9.082;2023-04-07T11:53:01;10.15;;;5.38;;
76053;SDS011;64752;48.870;9.082;2023-04-07T11:55:26;11.35;;;5.55;;
76053;SDS011;64752;48.870;9.082;2023-04-07T11:57:53;9.38;;;5.72;;
76053;SDS011;64752;48.870;9.082;2023-04-07T12:00:19;7.88;;;4.70;;
76053;SDS011;64752;48.870;9.082;2023-04-07T12:02:45;9.02;;;4.85;;
76053;SDS011;64752;48.870;9.082;2023-04-07T12:05:10;6.55;;;4.50;;
76053;SDS011;64752;48.870;9.082;2023-04-07T12:07:38;10.32;;;5.00;;
76053;SDS011;64752;48.870;9.082;2023-04-07T12:12:44;8.07;;;4.40;;
76053;SDS011;64752;48.870;9.082;2023-04-07T12:15:10;7.60;;;4.97;;
76053;SDS011;64752;48.870;9.082;2023-04-07T12:17:35;9.67;;;6.03;;
76053;SDS011;64752;48.870;9.082;2023-04-07T12:20:03;9.48;;;5.78;;
76053;SDS011;64752;48.870;9.082;2023-04-07T12:22:29;8.82;;;5.20;;
76053;SDS011;64752;48.870;9.082;2023-04-07T12:24:54;8.85;;;5.47;;
76053;SDS011;64752;48.870;9.082;2023-04-07T12:27:22;8.45;;;5.53;;
76053;SDS011;64752;48.870;9.082;2023-04-07T12:29:47;9.95;;;6.03;;
76053;SDS011;64752;48.870;9.082;2023-04-07T12:32:12;8.63;;;4.85;;
76053;SDS011;64752;48.870;9.082;2023-04-07T12:34:38;8.10;;;5.53;;
76053;SDS011;64752;48.870;9.082;2023-04-07T12:37:03;10.50;;;6.15;;
76053;SDS011;64752;48.870;9.082;2023-04-07T12:39:29;9.80;;;5.67;;
76053;SDS011;64752;48.870;9.082;2023-04-07T12:41:54;7.72;;;4.30;;
76053;SDS011;64752;48.870;9.082;2023-04-07T12:44:19;7.00;;;3.72;;
76053;SDS011;64752;48.870;9.082;2023-04-07T12:46:44;5.90;;;3.30;;
76053;SDS011;64752;48.870;9.082;2023-04-07T12:49:10;5.25;;;3.53;;
76053;SDS011;64752;48.870;9.082;2023-04-07T12:51:35;5.90;;;3.38;;
76053;SDS011;64752;48.870;9.082;2023-04-07T12:54:01;4.95;;;2.88;;
76053;SDS011;64752;48.870;9.082;2023-04-07T12:56:28;4.38;;;3.33;;
76053;SDS011;64752;48.870;9.082;2023-04-07T12:58:53;6.22;;;3.65;;
76053;SDS011;64752;48.870;9.082;2023-04-07T13:01:19;8.00;;;3.27;;
76053;SDS011;64752;48.870;9.082;2023-04-07T13:03:53;7.43;;;3.90;;
76053;SDS011;64752;48.870;9.082;2023-04-07T13:06:18;5.68;;;3.97;;
76053;SDS011;64752;48.870;9.082;2023-04-07T13:08:43;7.13;;;4.00;;
76053;SDS011;64752;48.870;9.082;2023-04-07T13:11:09;7.70;;;3.87;;
76053;SDS011;64752;48.870;9.082;2023-04-07T13:13:34;7.70;;;4.05;;
76053;SDS011;64752;48.870;9.082;2023-04-07T13:15:59;8.38;;;4.30;;
76053;SDS011;64752;48.870;9.082;2023-04-07T13:18:25;8.30;;;4.57;;
76053;SDS011;64752;48.870;9.082;2023-04-07T13:20:50;16.63;;;11.15;;
76053;SDS011;64752;48.870;9.082;2023-04-07T13:23:15;7.72;;;4.38;;
76053;SDS011;64752;48.870;9.082;2023-04-07T13:25:41;8.63;;;5.03;;
76053;SDS011;64752;48.870;9.082;2023-04-07T13:28:06;7.78;;;4.57;;
76053;SDS011;64752;48.870;9.082;2023-04-07T13:30:31;8.13;;;4.40;;
76053;SDS011;64752;48.870;9.082;2023-04-07T13:32:57;7.47;;;5.07;;
76053;SDS011;64752;48.870;9.082;2023-04-07T13:35:22;6.60;;;4.85;;
76053;SDS011;64752;48.870;9.082;2023-04-07T13:37:47;8.40;;;5.18;;
76053;SDS011;64752;48.870;9.082;2023-04-07T13:40:12;6.93;;;4.70;;
76053;SDS011;64752;48.870;9.082;2023-04-07T13:42:38;7.45;;;4.90;;
76053;SDS011;64752;48.870;9.082;2023-04-07T13:45:04;9.13;;;4.88;;
76053;SDS011;64752;48.870;9.082;2023-04-07T13:47:29;8.32;;;4.60;;
76053;SDS011;64752;48.870;9.082;2023-04-07T13:50:01;9.82;;;5.35;;
76053;SDS011;64752;48.870;9.082;2023-04-07T13:52:26;9.25;;;5.82;;
76053;SDS011;64752;48.870;9.082;2023-04-07T13:54:52;10.13;;;5.25;;
76053;SDS011;64752;48.870;9.082;2023-04-07T13:57:18;9.30;;;5.10;;
76053;SDS011;64752;48.870;9.082;2023-04-07T13:59:45;7.60;;;4.78;;
76053;SDS011;64752;48.870;9.082;2023-04-07T14:02:12;9.82;;;4.60;;
76053;SDS011;64752;48.870;9.082;2023-04-07T14:04:37;7.40;;;4.63;;
76053;SDS011;64752;48.870;9.082;2023-04-07T14:07:02;8.75;;;4.57;;
76053;SDS011;64752;48.870;9.082;2023-04-07T14:09:27;7.78;;;4.47;;
76053;SDS011;64752;48.870;9.082;2023-04-07T14:11:52;6.72;;;4.32;;
76053;SDS011;64752;48.870;9.082;2023-04-07T14:14:18;7.93;;;4.00;;
76053;SDS011;64752;48.870;9.082;2023-04-07T14:16:43;4.83;;;3.40;;
76053;SDS011;64752;48.870;9.082;2023-04-07T14:19:08;6.30;;;3.50;;
76053;SDS011;64752;48.870;9.082;2023-04-07T14:21:33;6.97;;;3.67;;
76053;SDS011;64752;48.870;9.082;2023-04-07T14:23:59;6.05;;;3.42;;
76053;SDS011;64752;48.870;9.082;2023-04-07T14:26:24;5.33;;;3.03;;
76053;SDS011;64752;48.870;9.082;2023-04-07T14:28:50;5.67;;;3.20;;
76053;SDS011;64752;48.870;9.082;2023-04-07T14:31:15;6.83;;;3.40;;
76053;SDS011;64752;48.870;9.082;2023-04-07T14:33:41;5.15;;;3.08;;
76053;SDS011;64752;48.870;9.082;2023-04-07T14:36:06;5.47;;;2.85;;
76053;SDS011;64752;48.870;9.082;2023-04-07T14:38:32;11.50;;;3.30;;
76053;SDS011;64752;48.870;9.082;2023-04-07T14:40:57;6.43;;;3.38;;
76053;SDS011;64752;48.870;9.082;2023-04-07T14:43:23;4.60;;;2.90;;
76053;SDS011;64752;48.870;9.082;2023-04-07T14:45:48;9.98;;;2.75;;
76053;SDS011;64752;48.870;9.082;2023-04-07T14:48:13;7.32;;;2.85;;
76053;SDS011;64752;48.870;9.082;2023-04-07T14:50:38;7.30;;;3.00;;
76053;SDS011;64752;48.870;9.082;2023-04-07T14:53:04;4.95;;;2.75;;
76053;SDS011;64752;48.870;9.082;2023-04-07T14:55:30;9.43;;;3.22;;
76053;SDS011;64752;48.870;9.082;2023-04-07T14:57:55;5.90;;;2.87;;
76053;SDS011;64752;48.870;9.082;2023-04-07T15:00:21;7.03;;;2.83;;
76053;SDS011;64752;48.870;9.082;2023-04-07T15:02:46;5.13;;;3.03;;